Time;durP1;ratioP1;P1;durP2;ratioP2;P2;SDS_P1;SDS_P2;PMS_P1;PMS_P2;Temp;Humidity;BMP_temperature;BMP_pressure;BME280_temperature;BME280_humidity;BME280_pressure;Samples;Min_cycle;Max_cycle;Signal;HPM_P1;HPM_P2
2021/12/20 00:00:44;;;;;;;1.40;0.65;;;2.70;99.90;;;;;;5146206;27;20657;-56
2021/12/20 00:03:24;;;;;;;3.58;0.77;;;2.70;99.90;;;;;;5084862;27;20566;-56
2021/12/20 00:06:04;;;;;;;0.60;0.60;;;2.70;99.90;;;;;;5146135;27;20531;-56
2021/12/20 00:08:43;;;;;;;0.60;0.60;;;2.70;99.90;;;;;;5084936;28;20672;-56
2021/12/20 00:11:23;;;;;;;0.68;0.68;;;2.70;99.90;;;;;;5145943;27;20953;-56
2021/12/20 00:14:03;;;;;;;0.60;0.60;;;2.70;99.90;;;;;;5084904;27;20544;-56
2021/12/20 00:16:43;;;;;;;0.77;0.77;;;2.70;99.90;;;;;;5084587;28;20684;-56
2021/12/20 00:19:25;;;;;;;0.70;0.70;;;2.60;99.90;;;;;;5146525;27;20673;-56
2021/12/20 00:22:05;;;;;;;0.80;0.80;;;2.50;99.90;;;;;;5104842;27;20542;-56
2021/12/20 00:24:44;;;;;;;1.85;0.68;;;2.50;99.90;;;;;;5083737;27;21064;-56
2021/12/20 00:27:24;;;;;;;1.10;1.10;;;2.40;99.90;;;;;;5104864;27;20661;-56
2021/12/20 00:30:05;;;;;;;1.27;1.00;;;2.40;99.90;;;;;;5105055;27;20653;-56
2021/12/20 00:32:45;;;;;;;1.00;0.93;;;2.40;99.90;;;;;;5145957;27;20665;-56
2021/12/20 00:35:25;;;;;;;1.13;1.10;;;2.40;99.90;;;;;;5104423;27;20530;-56
2021/12/20 00:41:02;;;;;;;1.02;0.60;;;2.40;99.90;;;;;;5084537;28;20668;-56
2021/12/20 00:43:42;;;;;;;1.13;1.10;;;2.50;99.90;;;;;;5125430;27;20563;-56
2021/12/20 00:46:22;;;;;;;1.30;1.23;;;2.40;99.90;;;;;;5084133;28;20667;-56
2021/12/20 00:49:02;;;;;;;1.30;0.80;;;2.40;99.90;;;;;;5146751;27;20676;-56
2021/12/20 00:51:42;;;;;;;1.27;1.02;;;2.40;99.90;;;;;;5084553;28;20660;-56
2021/12/20 00:54:21;;;;;;;0.75;0.75;;;2.40;99.90;;;;;;5083840;28;20679;-56
2021/12/20 00:57:01;;;;;;;0.88;0.63;;;2.40;99.90;;;;;;5084945;28;21204;-56
2021/12/20 00:59:41;;;;;;;1.48;0.70;;;2.40;99.90;;;;;;5084682;27;21056;-56
2021/12/20 01:02:21;;;;;;;0.70;0.68;;;2.40;99.90;;;;;;5084267;28;20675;-56
2021/12/20 01:05:02;;;;;;;0.50;0.50;;;2.40;99.90;;;;;;5104849;27;20560;-56
2021/12/20 01:07:40;;;;;;;2.85;0.60;;;2.40;99.90;;;;;;5085294;27;20692;-56
2021/12/20 01:10:20;;;;;;;0.47;0.47;;;2.40;99.90;;;;;;5105269;27;20546;-56
2021/12/20 01:13:02;;;;;;;0.68;0.60;;;2.40;99.90;;;;;;5084754;27;21093;-56
2021/12/20 01:15:47;;;;;;;0.80;0.60;;;2.40;99.90;;;;;;5083925;28;20664;-56
2021/12/20 01:18:26;;;;;;;0.63;0.60;;;2.40;99.90;;;;;;5085521;27;20543;-56
2021/12/20 01:21:07;;;;;;;0.52;0.52;;;2.40;99.90;;;;;;5084538;28;20672;-56
2021/12/20 01:23:47;;;;;;;0.63;0.50;;;2.50;99.90;;;;;;5084798;28;20692;-56
2021/12/20 01:26:27;;;;;;;2.33;0.82;;;2.50;99.90;;;;;;5104840;27;20570;-56
2021/12/20 01:29:07;;;;;;;1.08;0.77;;;2.50;99.90;;;;;;5105048;27;20538;-56
2021/12/20 01:31:47;;;;;;;0.55;0.55;;;2.50;99.90;;;;;;5084530;27;20535;-56
2021/12/20 01:34:27;;;;;;;0.95;0.93;;;2.60;99.90;;;;;;5104286;27;20549;-56
2021/12/20 01:37:07;;;;;;;0.90;0.55;;;2.50;99.90;;;;;;5084830;28;20703;-56
2021/12/20 01:39:46;;;;;;;1.27;0.75;;;2.50;99.90;;;;;;5146097;27;20534;-56
2021/12/20 01:42:30;;;;;;;1.75;0.60;;;2.50;99.90;;;;;;5085311;28;20684;-54
2021/12/20 01:45:13;;;;;;;0.82;0.40;;;2.40;99.90;;;;;;5084077;28;20680;-56
2021/12/20 01:48:02;;;;;;;0.90;0.50;;;2.30;99.90;;;;;;5125618;27;20533;-56
2021/12/20 01:51:02;;;;;;;1.52;0.52;;;2.30;99.90;;;;;;5148121;27;20665;-56
2021/12/20 01:53:43;;;;;;;0.43;0.32;;;2.30;99.90;;;;;;5082888;28;20683;-56
2021/12/20 01:56:22;;;;;;;0.60;0.60;;;2.20;99.90;;;;;;5084378;27;20565;-56
2021/12/20 01:59:07;;;;;;;0.65;0.50;;;2.30;99.90;;;;;;5146327;27;21186;-56
2021/12/20 02:01:47;;;;;;;0.60;0.52;;;2.30;99.90;;;;;;5084867;28;20656;-56
2021/12/20 02:04:27;;;;;;;0.73;0.73;;;2.30;99.90;;;;;;5104277;27;20548;-56
2021/12/20 02:07:06;;;;;;;0.63;0.63;;;2.30;99.90;;;;;;5146772;27;20546;-56
2021/12/20 02:09:46;;;;;;;0.75;0.57;;;2.40;99.90;;;;;;5084759;28;20565;-56
2021/12/20 02:12:36;;;;;;;0.50;0.50;;;2.30;99.90;;;;;;5084413;27;21084;-56
2021/12/20 02:15:15;;;;;;;0.63;0.50;;;2.30;99.90;;;;;;5144230;27;20665;-56
2021/12/20 02:17:55;;;;;;;0.63;0.60;;;2.40;99.90;;;;;;5146346;27;20666;-56
2021/12/20 02:20:37;;;;;;;0.77;0.55;;;2.40;99.90;;;;;;5105108;27;21021;-56
2021/12/20 02:23:16;;;;;;;0.63;0.63;;;2.40;99.90;;;;;;5084329;27;20567;-56
2021/12/20 02:25:56;;;;;;;1.17;0.80;;;2.40;99.90;;;;;;5145668;27;20526;-56
2021/12/20 02:28:40;;;;;;;1.33;0.90;;;2.40;99.90;;;;;;5084020;28;21042;-56
2021/12/20 02:37:29;;;;;;;1.13;0.90;;;2.30;99.90;;;;;;5105608;27;20661;-56
2021/12/20 02:40:09;;;;;;;1.45;0.70;;;2.30;99.90;;;;;;5084696;27;21022;-56
2021/12/20 02:42:49;;;;;;;0.65;0.60;;;2.20;99.90;;;;;;5145873;27;20685;-56
2021/12/20 02:45:33;;;;;;;0.80;0.55;;;2.20;99.90;;;;;;5083806;27;20540;-56
2021/12/20 02:48:12;;;;;;;1.98;0.70;;;2.10;99.90;;;;;;5084441;27;20535;-56
2021/12/20 02:50:55;;;;;;;0.98;0.57;;;2.10;99.90;;;;;;5149191;27;21017;-56
2021/12/20 02:53:36;;;;;;;1.70;0.60;;;2.00;99.90;;;;;;5123579;27;20545;-56
2021/12/20 02:56:15;;;;;;;1.10;0.60;;;1.90;99.90;;;;;;5104295;27;20542;-56
2021/12/20 02:58:55;;;;;;;0.75;0.52;;;2.00;99.90;;;;;;5146265;27;20615;-56
2021/12/20 03:01:37;;;;;;;0.57;0.55;;;2.00;99.90;;;;;;5084554;28;20687;-56
2021/12/20 03:04:17;;;;;;;2.25;0.70;;;2.00;99.90;;;;;;5104633;27;20912;-56
2021/12/20 03:06:58;;;;;;;2.55;0.80;;;2.00;99.90;;;;;;5146568;27;20658;-56
2021/12/20 03:09:41;;;;;;;1.35;0.50;;;2.00;99.90;;;;;;5084613;28;20675;-56
2021/12/20 03:12:23;;;;;;;1.67;0.70;;;2.00;99.90;;;;;;5104919;27;20684;-56
2021/12/20 03:15:09;;;;;;;1.33;0.75;;;2.00;99.90;;;;;;5104139;27;20992;-56
2021/12/20 03:17:48;;;;;;;1.75;0.73;;;2.00;99.90;;;;;;5146286;27;20649;-56
2021/12/20 03:20:28;;;;;;;0.80;0.65;;;2.00;99.90;;;;;;5084688;28;20539;-56
2021/12/20 03:23:08;;;;;;;1.83;0.75;;;2.00;99.90;;;;;;5145793;27;20547;-56
2021/12/20 03:25:48;;;;;;;1.02;0.90;;;1.90;99.90;;;;;;5084048;27;20551;-56
2021/12/20 03:28:27;;;;;;;1.83;0.70;;;1.80;99.90;;;;;;5105053;27;21136;-56
2021/12/20 03:31:07;;;;;;;1.85;0.80;;;1.70;99.90;;;;;;5146819;27;21198;-56
2021/12/20 03:33:47;;;;;;;0.93;0.57;;;1.50;99.90;;;;;;5083791;28;20672;-56
2021/12/20 03:36:27;;;;;;;0.68;0.63;;;1.30;99.90;;;;;;5145242;27;20672;-56
2021/12/20 03:39:08;;;;;;;0.88;0.70;;;1.10;99.90;;;;;;5104163;27;20677;-56
2021/12/20 03:41:48;;;;;;;2.67;1.10;;;0.90;99.90;;;;;;5084032;28;20655;-56
2021/12/20 03:44:32;;;;;;;1.23;0.73;;;0.80;99.90;;;;;;5082866;28;20539;-56
2021/12/20 03:47:11;;;;;;;2.05;0.80;;;0.60;99.90;;;;;;5146441;27;20544;-56
2021/12/20 03:49:51;;;;;;;3.08;1.08;;;0.30;99.90;;;;;;5084651;28;20671;-56
2021/12/20 03:52:31;;;;;;;1.48;0.60;;;0.20;99.90;;;;;;5081939;27;20910;-56
2021/12/20 03:55:13;;;;;;;1.52;0.88;;;0.20;99.90;;;;;;5104432;27;21199;-56
2021/12/20 03:57:52;;;;;;;2.55;1.05;;;0.10;99.90;;;;;;5085133;28;20652;-56
2021/12/20 04:00:32;;;;;;;1.80;1.00;;;0.00;99.90;;;;;;5083431;27;20392;-56
2021/12/20 04:03:13;;;;;;;1.85;1.30;;;-0.10;99.90;;;;;;5157936;27;20549;-56
2021/12/20 04:05:53;;;;;;;2.38;1.08;;;-0.10;99.90;;;;;;5084324;28;20554;-56
2021/12/20 04:08:33;;;;;;;1.77;0.88;;;-0.10;99.90;;;;;;5085265;28;20907;-56
2021/12/20 04:11:13;;;;;;;1.15;0.80;;;-0.20;99.90;;;;;;5084158;27;20544;-56
2021/12/20 04:13:53;;;;;;;1.48;0.70;;;-0.50;99.90;;;;;;5084320;27;21088;-56
2021/12/20 04:16:32;;;;;;;2.40;0.80;;;-0.60;99.90;;;;;;5084380;28;21068;-56
2021/12/20 04:19:12;;;;;;;2.17;0.98;;;-0.90;99.90;;;;;;5146059;27;20538;-56
2021/12/20 04:21:52;;;;;;;6.05;1.35;;;-1.20;99.90;;;;;;5146086;27;20657;-56
2021/12/20 04:24:32;;;;;;;3.92;1.08;;;-1.40;99.90;;;;;;5104547;27;20704;-56
2021/12/20 04:27:12;;;;;;;1.52;0.63;;;-1.40;99.90;;;;;;5084851;28;20664;-56
2021/12/20 04:29:54;;;;;;;2.33;1.10;;;-1.60;99.90;;;;;;5084839;28;20547;-56
2021/12/20 04:32:33;;;;;;;2.05;1.05;;;-1.70;99.90;;;;;;5104982;27;21070;-56
2021/12/20 04:35:15;;;;;;;1.67;1.00;;;-1.80;99.90;;;;;;5124770;27;20547;-56
2021/12/20 04:37:56;;;;;;;2.85;1.10;;;-2.00;99.90;;;;;;5083754;27;20567;-56
2021/12/20 04:40:36;;;;;;;3.17;1.17;;;-2.10;99.90;;;;;;5084772;27;21068;-56
2021/12/20 04:43:15;;;;;;;3.33;1.10;;;-1.70;99.90;;;;;;5084439;28;20671;-56
2021/12/20 04:45:55;;;;;;;2.97;1.25;;;-1.50;99.90;;;;;;5084483;27;20541;-56
2021/12/20 04:48:35;;;;;;;3.35;1.25;;;-1.60;99.90;;;;;;5125362;27;20917;-56
2021/12/20 04:51:15;;;;;;;3.50;1.40;;;-1.90;99.90;;;;;;5125244;27;20540;-56
2021/12/20 04:53:55;;;;;;;2.10;1.50;;;-1.90;99.90;;;;;;5144308;27;20546;-56
2021/12/20 04:56:35;;;;;;;2.45;1.52;;;-2.10;99.90;;;;;;5084102;27;20532;-56
2021/12/20 04:59:15;;;;;;;3.28;1.45;;;-2.10;99.90;;;;;;5145923;27;20538;-56
2021/12/20 05:01:54;;;;;;;2.35;1.48;;;-2.00;99.90;;;;;;5083043;27;20532;-56
2021/12/20 05:04:34;;;;;;;3.17;1.05;;;-2.20;99.90;;;;;;5083889;28;21021;-56
2021/12/20 05:07:14;;;;;;;4.43;2.17;;;-2.20;99.90;;;;;;5084900;27;21077;-56
2021/12/20 05:09:58;;;;;;;2.22;1.45;;;-2.40;99.90;;;;;;5146129;27;20649;-56
2021/12/20 05:12:38;;;;;;;3.13;2.50;;;-2.60;99.90;;;;;;5084461;28;20668;-56
2021/12/20 05:15:18;;;;;;;4.30;3.30;;;-2.70;99.90;;;;;;5083897;28;20680;-56
2021/12/20 05:17:58;;;;;;;7.60;4.38;;;-2.90;99.90;;;;;;5125579;27;20548;-56
2021/12/20 05:20:38;;;;;;;5.13;4.72;;;-3.00;99.90;;;;;;5129697;27;20671;-56
2021/12/20 05:23:18;;;;;;;6.28;4.57;;;-3.00;99.90;;;;;;5071911;27;20577;-56
2021/12/20 05:25:57;;;;;;;7.40;5.70;;;-3.10;99.90;;;;;;5083291;28;20663;-56
2021/12/20 05:28:37;;;;;;;5.70;5.20;;;-3.20;99.90;;;;;;5146473;27;20669;-56
2021/12/20 05:31:17;;;;;;;9.00;5.20;;;-3.30;99.90;;;;;;5127727;27;21208;-56
2021/12/20 05:33:57;;;;;;;6.38;5.03;;;-3.30;99.90;;;;;;5084280;27;21157;-56
2021/12/20 05:36:37;;;;;;;6.45;5.25;;;-3.30;99.90;;;;;;5145885;27;20546;-56
2021/12/20 05:39:17;;;;;;;5.82;4.97;;;-3.40;99.90;;;;;;5145764;27;20661;-56
2021/12/20 05:41:56;;;;;;;5.20;3.90;;;-3.50;99.90;;;;;;5124377;27;20981;-56
2021/12/20 05:44:36;;;;;;;4.90;4.18;;;-3.50;99.90;;;;;;5144008;27;21061;-56
2021/12/20 05:47:16;;;;;;;4.57;2.92;;;-3.50;99.90;;;;;;5084245;27;21077;-56
2021/12/20 05:49:56;;;;;;;3.53;2.15;;;-3.50;99.90;;;;;;5084465;27;20547;-56
2021/12/20 05:52:36;;;;;;;5.00;3.70;;;-3.50;99.90;;;;;;5123981;27;20555;-56
2021/12/20 05:55:16;;;;;;;6.45;3.42;;;-3.60;99.90;;;;;;5083558;28;20664;-56
2021/12/20 05:57:56;;;;;;;7.70;3.67;;;-3.40;99.90;;;;;;5104968;27;20530;-56
2021/12/20 06:00:35;;;;;;;4.00;3.00;;;-3.50;99.90;;;;;;5084410;27;20899;-56
2021/12/20 06:03:15;;;;;;;4.03;2.67;;;-3.60;99.90;;;;;;5146188;27;20669;-56
2021/12/20 06:05:55;;;;;;;2.92;2.63;;;-3.70;99.90;;;;;;5084412;28;20659;-56
2021/12/20 06:08:35;;;;;;;5.13;2.50;;;-3.60;99.90;;;;;;5084961;27;20547;-56
2021/12/20 06:11:15;;;;;;;2.65;2.00;;;-3.70;99.90;;;;;;5146503;27;21027;-56
2021/12/20 06:13:54;;;;;;;2.28;1.98;;;-3.70;99.90;;;;;;5085151;27;21004;-56
2021/12/20 06:16:34;;;;;;;3.47;2.05;;;-3.70;99.90;;;;;;5084896;28;20656;-57
2021/12/20 06:19:14;;;;;;;3.72;3.17;;;-3.70;99.90;;;;;;5084912;27;20559;-56
2021/12/20 06:21:55;;;;;;;12.90;11.70;;;-3.80;99.90;;;;;;5084779;28;20663;-56
2021/12/20 06:24:35;;;;;;;16.92;15.23;;;-3.90;99.90;;;;;;5083801;27;21151;-56
2021/12/20 06:27:15;;;;;;;16.25;13.48;;;-3.90;99.90;;;;;;5084848;27;20547;-56
2021/12/20 06:29:55;;;;;;;13.90;12.55;;;-4.00;99.90;;;;;;5105254;27;20562;-55
2021/12/20 06:32:35;;;;;;;16.75;14.82;;;-3.90;99.90;;;;;;5084210;27;20555;-56
2021/12/20 06:35:15;;;;;;;15.57;14.02;;;-4.00;99.90;;;;;;5084139;28;21213;-57
2021/12/20 06:38:01;;;;;;;10.88;9.88;;;-4.00;99.90;;;;;;5083959;27;21132;-56
2021/12/20 06:40:41;;;;;;;12.27;11.02;;;-4.00;99.90;;;;;;5084168;28;20431;-56
2021/12/20 06:43:21;;;;;;;11.68;10.50;;;-4.00;99.90;;;;;;5104823;27;21079;-57
2021/12/20 06:46:00;;;;;;;9.35;8.45;;;-4.00;99.90;;;;;;5084380;27;20559;-56
2021/12/20 06:48:40;;;;;;;8.32;7.63;;;-4.10;99.90;;;;;;5105268;27;20538;-57
2021/12/20 06:51:20;;;;;;;9.95;8.82;;;-4.10;99.90;;;;;;5125993;27;20536;-56
2021/12/20 06:54:00;;;;;;;10.23;9.13;;;-4.10;99.90;;;;;;5143342;27;21059;-56
2021/12/20 06:56:40;;;;;;;9.57;7.65;;;-4.10;99.90;;;;;;5146309;27;20546;-56
2021/12/20 06:59:19;;;;;;;7.20;6.50;;;-4.10;99.90;;;;;;5084710;27;20539;-57
2021/12/20 07:01:59;;;;;;;7.75;6.88;;;-4.00;99.90;;;;;;5084506;28;20659;-57
2021/12/20 07:04:39;;;;;;;4.28;3.38;;;-4.00;99.90;;;;;;5084087;27;20565;-57
2021/12/20 07:07:19;;;;;;;4.20;3.70;;;-4.10;99.90;;;;;;5105772;27;20744;-57
2021/12/20 07:09:59;;;;;;;4.55;3.10;;;-4.10;99.90;;;;;;5084741;27;21026;-57
2021/12/20 07:12:39;;;;;;;4.65;4.15;;;-4.30;99.90;;;;;;5084717;27;20562;-57
2021/12/20 07:15:19;;;;;;;5.43;4.00;;;-4.30;99.90;;;;;;5084010;28;20676;-57
2021/12/20 07:17:59;;;;;;;5.10;4.70;;;-4.30;99.90;;;;;;5084841;28;20656;-56
2021/12/20 07:20:38;;;;;;;4.50;2.65;;;-4.20;99.90;;;;;;5084731;27;20587;-56
2021/12/20 07:23:30;;;;;;;5.47;4.63;;;-4.20;99.90;;;;;;5145591;27;20576;-56
2021/12/20 07:26:12;;;;;;;4.97;4.47;;;-4.30;99.90;;;;;;5084251;28;20675;-57
2021/12/20 07:28:51;;;;;;;5.32;4.57;;;-4.30;99.90;;;;;;5146344;27;20677;-57
2021/12/20 07:31:31;;;;;;;6.57;5.88;;;-4.30;99.90;;;;;;5105423;27;20555;-57
2021/12/20 07:34:10;;;;;;;6.32;5.78;;;-4.30;99.90;;;;;;5084687;27;21190;-57
2021/12/20 07:36:52;;;;;;;5.80;5.25;;;-4.30;99.90;;;;;;5085145;28;20670;-57
2021/12/20 07:39:32;;;;;;;7.22;4.85;;;-4.20;99.90;;;;;;5125695;27;20683;-57
2021/12/20 07:42:12;;;;;;;6.88;5.55;;;-4.10;99.90;;;;;;5084729;28;20644;-57
2021/12/20 07:44:51;;;;;;;11.35;4.40;;;-4.00;99.90;;;;;;5084142;27;20536;-57
2021/12/20 07:47:31;;;;;;;8.00;5.57;;;-3.90;99.90;;;;;;5084902;28;20683;-57
2021/12/20 07:50:11;;;;;;;3.75;3.45;;;-3.80;99.90;;;;;;5084874;28;20656;-57
2021/12/20 07:52:51;;;;;;;4.10;3.80;;;-3.90;99.90;;;;;;5142495;27;20688;-57
2021/12/20 07:55:31;;;;;;;5.68;5.20;;;-4.00;99.90;;;;;;5084173;27;21040;-57
2021/12/20 07:58:11;;;;;;;5.75;5.18;;;-4.00;99.90;;;;;;5146567;27;20649;-56
2021/12/20 08:00:51;;;;;;;8.45;6.10;;;-4.00;99.90;;;;;;5105254;27;20658;-56
2021/12/20 08:03:30;;;;;;;6.72;6.13;;;-4.00;99.90;;;;;;5145729;27;20550;-56
2021/12/20 08:06:10;;;;;;;8.90;6.38;;;-3.90;99.90;;;;;;5146139;27;20669;-56
2021/12/20 08:08:50;;;;;;;7.90;6.13;;;-3.90;99.90;;;;;;5085021;28;21200;-56
2021/12/20 08:11:30;;;;;;;11.52;7.78;;;-3.80;99.90;;;;;;5084952;27;20547;-56
2021/12/20 08:14:10;;;;;;;6.03;5.43;;;-3.70;99.90;;;;;;5081859;28;20664;-57
2021/12/20 08:16:49;;;;;;;6.95;6.30;;;-3.70;99.90;;;;;;5125898;27;20532;-57
2021/12/20 08:19:31;;;;;;;7.93;5.13;;;-3.60;99.90;;;;;;5084024;28;20539;-56
2021/12/20 08:22:11;;;;;;;6.82;5.82;;;-3.50;99.90;;;;;;5084667;27;20555;-57
2021/12/20 08:24:51;;;;;;;8.55;6.55;;;-3.30;99.90;;;;;;5125076;27;20569;-56
2021/12/20 08:27:30;;;;;;;7.68;6.78;;;-3.30;99.90;;;;;;5083986;28;20656;-57
2021/12/20 08:30:11;;;;;;;10.02;8.70;;;-3.10;99.90;;;;;;5103433;27;21106;-56
2021/12/20 08:32:52;;;;;;;10.98;9.95;;;-3.10;99.90;;;;;;5123853;27;20559;-56
2021/12/20 08:35:31;;;;;;;14.88;10.50;;;-2.90;99.90;;;;;;5081858;27;20988;-56
2021/12/20 08:38:12;;;;;;;17.35;15.45;;;-2.80;99.90;;;;;;5103363;27;21054;-56
2021/12/20 08:40:51;;;;;;;18.33;14.95;;;-2.70;99.90;;;;;;5083217;27;20909;-56
2021/12/20 08:43:31;;;;;;;15.52;12.65;;;-2.60;99.90;;;;;;5083263;27;20585;-56
2021/12/20 08:46:13;;;;;;;15.05;12.63;;;-2.50;99.90;;;;;;5104393;27;20670;-56
2021/12/20 08:48:56;;;;;;;9.10;7.40;;;-2.40;99.90;;;;;;5146478;27;20538;-56
2021/12/20 08:51:36;;;;;;;8.52;5.72;;;-2.20;99.90;;;;;;5105174;27;20537;-56
2021/12/20 08:54:16;;;;;;;5.78;4.35;;;-2.00;99.90;;;;;;5103009;27;20550;-56
2021/12/20 08:56:55;;;;;;;6.03;4.82;;;-1.90;99.90;;;;;;5085738;28;20668;-56
2021/12/20 08:59:35;;;;;;;7.80;4.43;;;-1.80;99.90;;;;;;5084750;27;20537;-56
2021/12/20 09:02:14;;;;;;;6.80;3.78;;;-1.80;99.90;;;;;;5125145;27;20962;-56
2021/12/20 09:04:55;;;;;;;5.00;4.47;;;-1.80;99.90;;;;;;5145424;27;20535;-56
2021/12/20 09:07:36;;;;;;;6.93;5.15;;;-1.70;99.90;;;;;;5024950;28;20658;-56
2021/12/20 09:10:17;;;;;;;5.28;4.78;;;-1.70;99.90;;;;;;5083327;28;20298;-56
2021/12/20 09:12:57;;;;;;;4.70;4.22;;;-1.50;99.90;;;;;;5084403;27;20555;-56
2021/12/20 09:15:37;;;;;;;5.03;3.30;;;-1.40;99.90;;;;;;5145286;27;20661;-56
2021/12/20 09:18:17;;;;;;;5.22;3.55;;;-1.30;99.90;;;;;;5085240;28;20998;-56
2021/12/20 09:20:57;;;;;;;3.72;3.15;;;-1.30;99.90;;;;;;5104646;27;21291;-56
2021/12/20 09:23:36;;;;;;;2.70;2.25;;;-1.30;99.90;;;;;;5084289;28;20687;-56
2021/12/20 09:26:16;;;;;;;3.60;2.78;;;-1.30;99.90;;;;;;5084808;27;20549;-56
2021/12/20 09:28:56;;;;;;;4.22;3.13;;;-1.20;99.90;;;;;;5146252;27;20665;-56
2021/12/20 09:31:36;;;;;;;5.82;4.05;;;-1.20;99.90;;;;;;5085135;27;20862;-56
2021/12/20 09:34:16;;;;;;;6.05;3.80;;;-1.10;99.90;;;;;;5104566;27;20685;-56
2021/12/20 09:36:55;;;;;;;8.40;3.80;;;-0.90;99.90;;;;;;5105195;27;20537;-56
2021/12/20 09:39:38;;;;;;;9.07;4.30;;;-0.90;99.90;;;;;;5104383;27;20657;-56
2021/12/20 09:42:17;;;;;;;4.25;3.50;;;-0.80;99.90;;;;;;5145957;27;20977;-57
2021/12/20 09:44:57;;;;;;;5.32;2.90;;;-0.90;99.90;;;;;;5104387;27;21186;-55
2021/12/20 09:47:36;;;;;;;3.47;2.92;;;-0.80;99.90;;;;;;5085086;28;20656;-56
2021/12/20 09:50:17;;;;;;;5.78;2.92;;;-0.80;99.90;;;;;;5084689;27;20531;-55
2021/12/20 09:52:56;;;;;;;5.72;2.70;;;-0.60;99.90;;;;;;5082137;27;20547;-56
2021/12/20 09:55:36;;;;;;;4.20;2.47;;;-0.50;99.90;;;;;;5084252;27;20531;-54
2021/12/20 09:58:16;;;;;;;5.32;2.88;;;-0.30;99.90;;;;;;5105924;27;20541;-57
2021/12/20 10:00:56;;;;;;;5.50;2.53;;;-0.20;99.90;;;;;;5105407;27;20654;-56
2021/12/20 10:03:36;;;;;;;3.25;1.88;;;0.00;99.90;;;;;;5161352;27;21077;-55
2021/12/20 10:06:17;;;;;;;4.93;1.83;;;0.10;99.90;;;;;;5125294;27;20544;-56
2021/12/20 10:09:03;;;;;;;3.38;1.73;;;0.20;99.90;;;;;;5085190;27;21084;-57
2021/12/20 10:11:44;;;;;;;3.17;2.08;;;0.20;99.90;;;;;;5105652;27;21062;-57
2021/12/20 10:14:24;;;;;;;2.15;1.33;;;0.30;99.90;;;;;;5084172;27;20552;-56
2021/12/20 10:17:05;;;;;;;4.90;2.40;;;0.30;99.90;;;;;;5084168;27;20431;-56
2021/12/20 10:19:44;;;;;;;2.65;1.60;;;0.30;99.90;;;;;;5084607;27;20535;-56
2021/12/20 10:22:28;;;;;;;3.05;1.60;;;0.30;99.90;;;;;;5084586;28;20559;-55
2021/12/20 10:25:21;;;;;;;2.90;1.60;;;0.30;99.90;;;;;;5128994;27;20919;-56
2021/12/20 10:28:07;;;;;;;3.25;1.73;;;0.40;99.90;;;;;;5146187;27;20665;-56
2021/12/20 10:30:49;;;;;;;4.68;1.27;;;0.40;99.90;;;;;;5104408;27;21140;-56
2021/12/20 10:33:28;;;;;;;3.10;1.65;;;0.30;99.90;;;;;;5084318;28;20703;-55
2021/12/20 10:36:10;;;;;;;5.72;4.20;;;0.30;99.90;;;;;;5084576;28;20593;-55
2021/12/20 10:38:56;;;;;;;12.27;11.23;;;0.30;99.90;;;;;;5085278;27;20664;-57
2021/12/20 10:41:39;;;;;;;27.05;24.50;;;0.30;99.90;;;;;;5105612;27;20546;-55
2021/12/20 10:44:24;;;;;;;2.63;1.35;;;0.40;99.90;;;;;;5145970;27;20677;-55
2021/12/20 10:47:05;;;;;;;3.17;1.20;;;0.40;99.90;;;;;;5124017;27;20645;-56
2021/12/20 10:49:43;;;;;;;3.97;1.38;;;0.40;99.90;;;;;;5084613;27;20687;-56
2021/12/20 10:52:31;;;;;;;2.80;2.00;;;0.30;99.90;;;;;;5077929;27;20597;-57
2021/12/20 10:55:12;;;;;;;2.15;1.50;;;0.30;99.90;;;;;;5084041;27;20540;-56
2021/12/20 10:57:51;;;;;;;4.45;2.22;;;0.20;99.90;;;;;;5083801;28;20555;-56
2021/12/20 11:00:31;;;;;;;2.15;1.10;;;0.10;99.90;;;;;;5105007;27;20533;-56
2021/12/20 11:03:28;;;;;;;3.78;1.20;;;0.20;99.90;;;;;;5125592;27;20564;-56
2021/12/20 11:06:39;;;;;;;4.45;1.98;;;0.20;99.90;;;;;;5084362;27;20531;-56
2021/12/20 11:09:20;;;;;;;2.80;1.40;;;0.30;99.90;;;;;;5146303;27;20534;-56
2021/12/20 11:12:02;;;;;;;3.35;1.42;;;0.40;99.90;;;;;;5084848;27;20721;-55
2021/12/20 11:14:44;;;;;;;5.65;1.60;;;0.50;99.90;;;;;;5083918;27;20547;-56
2021/12/20 11:17:24;;;;;;;3.08;1.02;;;0.60;99.90;;;;;;5085031;28;20672;-56
2021/12/20 11:20:05;;;;;;;2.78;1.45;;;0.60;99.90;;;;;;5105383;27;20701;-56
2021/12/20 11:22:44;;;;;;;2.92;1.55;;;0.50;99.90;;;;;;5083446;27;20523;-57
2021/12/20 11:25:24;;;;;;;3.13;1.38;;;0.50;99.90;;;;;;5084181;28;20684;-55
2021/12/20 11:28:04;;;;;;;1.83;1.08;;;0.40;99.90;;;;;;5105013;27;20906;-57
2021/12/20 11:30:43;;;;;;;2.95;1.60;;;0.40;99.90;;;;;;5105089;27;20662;-56
2021/12/20 11:33:23;;;;;;;3.90;1.45;;;0.50;99.90;;;;;;5084286;28;20852;-57
2021/12/20 11:36:03;;;;;;;1.75;1.30;;;0.40;99.90;;;;;;5125103;27;20660;-56
2021/12/20 11:38:43;;;;;;;3.17;1.35;;;0.40;99.90;;;;;;5079202;28;20703;-56
2021/12/20 11:41:23;;;;;;;4.65;1.30;;;0.30;99.90;;;;;;5082609;27;20574;-55
2021/12/20 11:44:06;;;;;;;1.65;0.90;;;0.30;99.90;;;;;;5144173;27;20550;-56
2021/12/20 11:47:00;;;;;;;1.38;0.73;;;0.40;99.90;;;;;;5084125;27;20971;-56
2021/12/20 11:49:40;;;;;;;2.38;0.85;;;0.50;99.90;;;;;;5084502;27;20540;-56
2021/12/20 11:52:20;;;;;;;3.53;1.08;;;0.60;99.90;;;;;;5123721;27;20568;-55
2021/12/20 11:54:59;;;;;;;1.40;1.08;;;0.80;99.90;;;;;;5103760;27;20657;-56
2021/12/20 11:57:42;;;;;;;2.47;1.10;;;0.90;99.90;;;;;;5084738;27;21318;-56
2021/12/20 12:00:28;;;;;;;2.45;1.20;;;0.90;99.90;;;;;;5146041;27;20835;-56
2021/12/20 12:03:17;;;;;;;1.58;1.15;;;1.00;99.90;;;;;;5104583;27;20681;-56
2021/12/20 12:05:58;;;;;;;2.42;1.05;;;1.10;99.90;;;;;;5083199;28;21109;-55
2021/12/20 12:08:40;;;;;;;2.78;0.95;;;1.20;99.90;;;;;;5145951;27;20679;-55
2021/12/20 12:11:36;;;;;;;3.22;1.35;;;1.20;99.90;;;;;;5125107;27;20573;-55
2021/12/20 12:14:32;;;;;;;4.50;1.08;;;1.30;99.90;;;;;;5144173;27;21241;-56
2021/12/20 12:17:15;;;;;;;3.95;1.00;;;1.40;99.90;;;;;;5083491;27;20540;-54
2021/12/20 12:19:54;;;;;;;1.65;1.00;;;1.60;99.90;;;;;;5077649;22;20721;-55
2021/12/20 12:22:36;;;;;;;3.17;0.95;;;1.60;99.90;;;;;;5083760;27;20543;-55
2021/12/20 12:25:36;;;;;;;2.42;1.13;;;1.70;99.90;;;;;;5084145;28;20531;-55
2021/12/20 12:28:17;;;;;;;1.33;0.70;;;1.90;99.90;;;;;;5146461;27;20538;-56
2021/12/20 12:31:04;;;;;;;1.17;0.70;;;2.30;99.90;;;;;;5126810;27;20691;-55
2021/12/20 12:33:43;;;;;;;3.22;1.35;;;2.60;99.90;;;;;;5085988;27;20569;-55
2021/12/20 12:36:39;;;;;;;0.98;0.60;;;2.90;99.90;;;;;;5106342;27;20912;-55
2021/12/20 12:39:25;;;;;;;1.13;0.50;;;3.10;99.90;;;;;;5158790;27;20536;-55
2021/12/20 12:42:06;;;;;;;1.42;0.90;;;3.20;99.90;;;;;;5147760;27;20557;-56
2021/12/20 12:44:52;;;;;;;1.58;0.93;;;3.00;99.90;;;;;;5085908;27;20561;-55
2021/12/20 12:47:37;;;;;;;4.07;0.70;;;2.90;99.90;;;;;;5106012;27;20533;-56
2021/12/20 12:50:27;;;;;;;1.58;0.80;;;2.70;99.90;;;;;;5086438;27;20547;-55
2021/12/20 12:53:41;;;;;;;5.30;0.85;;;2.60;99.90;;;;;;5127220;27;21101;-55
2021/12/20 12:56:35;;;;;;;1.45;0.80;;;2.40;99.90;;;;;;5086051;28;20691;-55
2021/12/20 12:59:24;;;;;;;1.88;0.90;;;2.20;99.90;;;;;;5148057;27;20669;-55
2021/12/20 13:02:11;;;;;;;2.75;0.93;;;2.10;99.90;;;;;;5106648;27;20945;-56
2021/12/20 13:04:53;;;;;;;2.80;0.55;;;2.00;99.90;;;;;;5146083;27;20542;-55
2021/12/20 13:07:35;;;;;;;2.90;0.80;;;1.90;99.90;;;;;;5085992;28;21202;-56
2021/12/20 13:10:18;;;;;;;2.40;0.57;;;1.90;99.90;;;;;;5106529;27;21182;-55
2021/12/20 13:13:04;;;;;;;2.28;0.70;;;1.90;99.90;;;;;;5086281;28;21184;-56
2021/12/20 13:15:47;;;;;;;2.50;0.60;;;1.90;99.90;;;;;;5146525;27;20566;-56
2021/12/20 13:18:31;;;;;;;2.45;0.70;;;2.00;99.90;;;;;;5079850;27;20584;-56
2021/12/20 13:21:19;;;;;;;0.95;0.50;;;2.00;99.90;;;;;;5099352;27;20554;-55
2021/12/20 13:24:00;;;;;;;6.30;0.98;;;2.00;99.90;;;;;;5085839;27;21019;-55
2021/12/20 13:26:39;;;;;;;1.05;0.40;;;2.00;99.90;;;;;;5084606;27;21150;-55
2021/12/20 13:29:19;;;;;;;1.92;1.10;;;2.00;99.90;;;;;;5082214;28;21909;-55
2021/12/20 13:32:06;;;;;;;2.40;1.10;;;1.90;99.90;;;;;;5105935;27;20657;-55
2021/12/20 13:34:49;;;;;;;3.30;0.93;;;1.80;99.90;;;;;;5084282;28;20664;-55
2021/12/20 13:37:35;;;;;;;2.00;1.00;;;1.80;99.90;;;;;;5112393;27;20681;-56
2021/12/20 13:40:14;;;;;;;1.10;0.60;;;1.70;99.90;;;;;;5087856;27;20563;-56
2021/12/20 13:42:54;;;;;;;2.38;0.60;;;1.50;99.90;;;;;;5125219;27;20536;-55
2021/12/20 13:45:34;;;;;;;1.13;0.70;;;1.50;99.90;;;;;;5083621;27;20554;-56
2021/12/20 13:48:14;;;;;;;4.13;0.60;;;1.50;99.90;;;;;;5126391;27;20672;-56
2021/12/20 13:50:55;;;;;;;1.38;0.70;;;1.50;99.90;;;;;;5087947;28;20706;-56
2021/12/20 13:53:35;;;;;;;1.65;0.65;;;1.60;99.90;;;;;;5121550;27;20544;-57
2021/12/20 13:56:16;;;;;;;2.83;0.50;;;1.70;99.90;;;;;;5147473;27;20677;-56
2021/12/20 13:58:56;;;;;;;1.52;0.85;;;1.60;99.90;;;;;;5133542;27;20558;-55
2021/12/20 14:01:38;;;;;;;1.10;0.55;;;1.50;99.90;;;;;;5084622;28;20668;-55
2021/12/20 14:04:29;;;;;;;4.55;0.77;;;1.50;99.90;;;;;;5084801;28;20925;-55
2021/12/20 14:07:27;;;;;;;2.00;0.70;;;1.50;99.90;;;;;;5084182;27;20573;-55
2021/12/20 14:10:10;;;;;;;3.00;0.95;;;1.40;99.90;;;;;;5080814;28;20690;-55
2021/12/20 14:12:54;;;;;;;1.73;0.80;;;1.20;99.90;;;;;;5085685;27;20535;-55